createdAt,value
2023-01-31T00:01:40.886Z,79.02
2023-01-31T00:04:28.844Z,79.10
2023-01-31T00:07:20.986Z,79.26
2023-01-31T00:10:14.168Z,79.16
2023-01-31T00:13:06.439Z,79.20
2023-01-31T00:16:00.464Z,79.36
2023-01-31T00:18:51.767Z,79.51
2023-01-31T00:21:45.153Z,79.69
2023-01-31T00:24:37.789Z,79.63
2023-01-31T00:27:30.371Z,79.68
2023-01-31T00:30:22.950Z,79.60
2023-01-31T00:33:15.228Z,79.52
2023-01-31T00:36:10.273Z,79.49
2023-01-31T00:39:04.932Z,79.72
2023-01-31T00:41:57.201Z,79.83
2023-01-31T00:44:49.371Z,80.05
2023-01-31T00:47:41.691Z,80.03
2023-01-31T00:50:34.647Z,80.09
2023-01-31T00:53:27.804Z,80.06
2023-01-31T00:56:22.847Z,80.07
2023-01-31T00:59:15.086Z,80.10
2023-01-31T01:02:07.275Z,80.28
2023-01-31T01:04:59.407Z,79.97
2023-01-31T01:07:51.537Z,79.81
2023-01-31T01:10:43.662Z,80.19
2023-01-31T01:13:36.528Z,80.02
2023-01-31T01:16:32.799Z,79.96
2023-01-31T01:19:25.100Z,80.24
2023-01-31T01:22:17.269Z,80.19
2023-01-31T01:25:11.282Z,80.00
2023-01-31T01:28:03.404Z,79.94
2023-01-31T01:30:55.524Z,79.83
2023-01-31T01:33:48.850Z,80.05
2023-01-31T01:36:41.573Z,80.16
2023-01-31T01:39:33.886Z,79.88
2023-01-31T01:42:28.552Z,79.65
2023-01-31T01:45:21.170Z,79.61
2023-01-31T01:48:18.458Z,79.39
2023-01-31T01:51:11.289Z,79.49
2023-01-31T01:54:08.288Z,79.44
2023-01-31T01:57:04.501Z,79.51
2023-01-31T02:00:20.413Z,79.20
2023-01-31T02:03:12.784Z,78.86
2023-01-31T02:06:07.703Z,78.83
2023-01-31T02:09:00.259Z,78.57
2023-01-31T02:11:52.662Z,78.32
2023-01-31T02:14:47.739Z,77.66
2023-01-31T02:17:40.104Z,77.00
2023-01-31T02:21:06.414Z,76.80
2023-01-31T02:24:21.057Z,76.68
2023-01-31T02:27:19.190Z,76.65
2023-01-31T02:30:43.474Z,76.88
2023-01-31T02:33:41.702Z,77.20
2023-01-31T02:36:44.272Z,77.54
2023-01-31T02:39:44.751Z,77.39
2023-01-31T02:42:47.065Z,77.57
2023-01-31T02:45:47.968Z,77.76
2023-01-31T02:48:53.114Z,77.96
2023-01-31T02:51:39.006Z,77.91
2023-01-31T02:54:52.741Z,77.95
2023-01-31T02:57:47.451Z,77.76
2023-01-31T03:00:45.177Z,77.72
2023-01-31T03:03:39.168Z,77.94
2023-01-31T03:07:00.089Z,77.79
2023-01-31T03:10:04.848Z,77.79
2023-01-31T03:13:15.424Z,77.88
2023-01-31T03:16:38.838Z,77.89
2023-01-31T03:19:37.216Z,78.07
2023-01-31T03:22:24.820Z,77.80
2023-01-31T03:25:19.888Z,77.57
2023-01-31T03:28:15.645Z,77.52
2023-01-31T03:31:15.414Z,77.61
2023-01-31T03:34:11.471Z,77.74
2023-01-31T03:37:13.611Z,77.76
2023-01-31T03:40:11.705Z,77.89
2023-01-31T03:43:09.466Z,77.98
2023-01-31T03:46:08.680Z,78.08
2023-01-31T03:49:08.739Z,78.05
2023-01-31T03:52:06.598Z,78.34
2023-01-31T03:55:15.880Z,78.26
2023-01-31T03:58:09.439Z,78.36
2023-01-31T04:01:07.326Z,78.28
2023-01-31T04:04:04.164Z,78.55
2023-01-31T04:06:56.334Z,78.46
2023-01-31T04:09:48.714Z,78.50
2023-01-31T04:12:41.325Z,78.47
2023-01-31T04:15:33.658Z,78.52
2023-01-31T04:18:25.805Z,78.06
2023-01-31T04:21:18.330Z,77.92
2023-01-31T04:24:10.715Z,77.90
2023-01-31T04:27:02.992Z,78.00
2023-01-31T04:29:55.117Z,77.95
2023-01-31T04:32:47.184Z,78.09
2023-01-31T04:35:42.167Z,78.28
2023-01-31T04:38:34.460Z,78.19
2023-01-31T04:41:26.686Z,78.30
2023-01-31T04:44:18.777Z,78.40
2023-01-31T04:47:10.960Z,78.55
2023-01-31T04:50:03.044Z,78.81
2023-01-31T04:52:56.040Z,78.69
2023-01-31T04:55:48.112Z,78.75
2023-01-31T04:58:41.536Z,78.66
2023-01-31T05:01:18.773Z,78.78
2023-01-31T05:04:11.060Z,78.84
2023-01-31T05:07:03.126Z,78.89
2023-01-31T05:09:55.200Z,78.79
2023-01-31T05:12:47.368Z,78.95
2023-01-31T05:15:40.830Z,79.24
2023-01-31T05:18:33.076Z,79.09
2023-01-31T05:21:25.166Z,79.10
2023-01-31T05:24:17.256Z,79.01
2023-01-31T05:27:10.728Z,79.19
2023-01-31T05:30:05.566Z,79.23
2023-01-31T05:32:57.855Z,79.14
2023-01-31T05:35:50.017Z,79.29
2023-01-31T05:38:42.142Z,79.14
2023-01-31T05:41:34.217Z,78.75
2023-01-31T05:44:26.340Z,78.65
2023-01-31T05:47:18.530Z,78.93
2023-01-31T05:50:12.685Z,78.73
2023-01-31T05:53:04.006Z,78.60
2023-01-31T05:55:39.165Z,78.64
2023-01-31T05:58:31.303Z,78.56
2023-01-31T06:01:25.424Z,78.56
2023-01-31T06:04:16.044Z,78.31
2023-01-31T06:07:08.254Z,78.27
2023-01-31T06:10:00.928Z,78.28
2023-01-31T06:12:53.557Z,78.09
2023-01-31T06:15:47.197Z,78.08
2023-01-31T06:18:39.596Z,78.03
2023-01-31T06:21:32.089Z,77.87
2023-01-31T06:24:24.260Z,77.46
2023-01-31T06:27:16.493Z,77.57
2023-01-31T06:30:10.839Z,77.72
2023-01-31T06:33:03.936Z,77.51
2023-01-31T06:35:59.925Z,77.65
2023-01-31T06:38:55.876Z,77.79
2023-01-31T06:41:48.048Z,77.73
2023-01-31T06:44:40.286Z,77.82
2023-01-31T06:47:32.714Z,77.83
2023-01-31T06:50:24.881Z,77.81
2023-01-31T06:53:17.104Z,77.70
2023-01-31T06:55:52.563Z,77.55
2023-01-31T06:58:44.697Z,77.51
2023-01-31T07:01:36.901Z,77.44
2023-01-31T07:04:29.148Z,77.43
2023-01-31T07:07:21.358Z,76.96
2023-01-31T07:10:14.762Z,76.78
2023-01-31T07:13:06.832Z,77.00
2023-01-31T07:15:59.090Z,77.12
2023-01-31T07:18:53.074Z,76.78
2023-01-31T07:21:45.262Z,76.78
2023-01-31T07:24:37.393Z,77.13
2023-01-31T07:27:30.130Z,76.86
2023-01-31T07:30:23.103Z,76.60
2023-01-31T07:33:15.288Z,76.58
2023-01-31T07:36:09.397Z,76.51
2023-01-31T07:39:00.947Z,76.31
2023-01-31T07:41:52.975Z,76.34
2023-01-31T07:44:45.240Z,76.26
2023-01-31T07:47:37.342Z,76.08
2023-01-31T07:50:14.289Z,76.25
2023-01-31T07:53:06.363Z,76.00
2023-01-31T07:56:05.887Z,75.74
2023-01-31T07:58:59.941Z,75.76
2023-01-31T08:02:08.464Z,75.67
2023-01-31T08:05:00.880Z,75.55
2023-01-31T08:08:10.310Z,75.42
2023-01-31T08:11:02.807Z,75.43
2023-01-31T08:13:54.982Z,75.20
2023-01-31T08:16:47.258Z,75.48
2023-01-31T08:19:39.620Z,75.34
2023-01-31T08:22:31.788Z,75.19
2023-01-31T08:25:24.251Z,75.15
2023-01-31T08:28:16.603Z,75.09
2023-01-31T08:31:13.384Z,75.04
2023-01-31T08:34:08.206Z,75.30
2023-01-31T08:37:01.032Z,75.63
2023-01-31T08:39:53.394Z,75.55
2023-01-31T08:42:45.725Z,75.17
2023-01-31T08:45:38.792Z,75.15
2023-01-31T08:48:32.943Z,74.88
2023-01-31T08:51:23.739Z,74.93
2023-01-31T08:54:16.233Z,74.68
2023-01-31T08:57:08.469Z,74.59
2023-01-31T09:00:00.563Z,74.34
2023-01-31T09:02:55.803Z,74.52
2023-01-31T09:05:48.219Z,74.30
2023-01-31T09:08:23.271Z,74.25
2023-01-31T09:11:19.533Z,74.11
2023-01-31T09:14:12.164Z,73.82
2023-01-31T09:17:04.484Z,73.82
2023-01-31T09:19:56.660Z,73.74
2023-01-31T09:22:48.822Z,73.49
2023-01-31T09:25:47.007Z,73.29
2023-01-31T09:28:42.224Z,73.10
2023-01-31T09:31:34.533Z,72.91
2023-01-31T09:34:26.813Z,72.66
2023-01-31T09:37:19.088Z,72.51
2023-01-31T09:40:22.775Z,72.35
2023-01-31T09:43:15.419Z,72.04
2023-01-31T09:46:13.910Z,71.69
2023-01-31T09:49:09.303Z,71.80
2023-01-31T09:52:04.654Z,71.15
2023-01-31T09:54:57.044Z,71.03
2023-01-31T09:57:55.143Z,70.76
2023-01-31T10:00:33.870Z,70.87
2023-01-31T10:03:38.369Z,70.57
2023-01-31T10:06:33.687Z,70.29
2023-01-31T10:09:30.762Z,70.27
2023-01-31T10:12:29.404Z,70.24
2023-01-31T10:15:42.744Z,69.83
2023-01-31T10:18:39.940Z,70.36
2023-01-31T10:21:37.202Z,70.27
2023-01-31T10:24:33.241Z,70.26
2023-01-31T10:27:41.887Z,70.17
2023-01-31T10:30:42.858Z,70.27
2023-01-31T10:33:45.388Z,70.25
2023-01-31T10:36:41.426Z,69.86
2023-01-31T10:39:22.424Z,69.64
2023-01-31T10:42:22.867Z,69.58
2023-01-31T10:45:19.845Z,69.49
2023-01-31T10:48:19.785Z,69.93
2023-01-31T10:51:24.386Z,69.95
2023-01-31T10:54:30.595Z,70.13
2023-01-31T10:57:23.208Z,70.48
2023-01-31T11:00:22.109Z,70.45
2023-01-31T11:03:15.712Z,70.48
2023-01-31T11:06:08.242Z,70.60
2023-01-31T11:09:02.472Z,70.53
2023-01-31T11:11:57.710Z,70.56
2023-01-31T11:15:16.549Z,70.48
2023-01-31T11:18:15.603Z,70.65
2023-01-31T11:21:08.378Z,70.28
2023-01-31T11:24:05.919Z,70.03
2023-01-31T11:27:03.362Z,69.61
2023-01-31T11:29:59.937Z,69.32
2023-01-31T11:32:52.471Z,69.26
2023-01-31T11:35:54.049Z,69.34
2023-01-31T11:38:46.452Z,69.20
2023-01-31T11:41:42.289Z,69.26
2023-01-31T11:44:34.508Z,68.98
2023-01-31T11:47:33.434Z,68.96
2023-01-31T11:50:28.389Z,69.10
2023-01-31T11:53:23.215Z,68.72
2023-01-31T11:56:18.417Z,66.73
2023-01-31T11:59:18.952Z,65.91
2023-01-31T12:02:27.028Z,65.80
2023-01-31T12:05:20.664Z,65.51
2023-01-31T12:08:31.594Z,65.98
2023-01-31T12:11:51.124Z,67.56
2023-01-31T12:14:25.095Z,66.64
2023-01-31T12:17:20.415Z,65.25
2023-01-31T12:20:29.833Z,64.75
2023-01-31T12:23:36.194Z,64.42
2023-01-31T12:26:42.571Z,64.09
2023-01-31T12:29:55.925Z,64.05
2023-01-31T12:33:03.324Z,64.34
2023-01-31T12:36:07.130Z,64.84
2023-01-31T12:39:24.399Z,65.26
2023-01-31T12:42:30.428Z,65.47
2023-01-31T12:45:37.310Z,65.26
2023-01-31T12:48:42.524Z,65.38
2023-01-31T12:51:52.539Z,65.75
2023-01-31T12:55:07.098Z,65.79
2023-01-31T12:58:23.693Z,65.91
2023-01-31T13:01:22.483Z,66.15
2023-01-31T13:04:36.793Z,66.44
2023-01-31T13:07:34.475Z,66.67
2023-01-31T13:10:36.318Z,66.86
2023-01-31T13:13:31.874Z,66.34
2023-01-31T13:16:27.069Z,66.62
2023-01-31T13:19:24.334Z,66.74
2023-01-31T13:22:21.590Z,66.66
2023-01-31T13:25:22.126Z,66.60
2023-01-31T13:28:19.713Z,66.97
2023-01-31T13:31:18.649Z,66.96
2023-01-31T13:34:18.673Z,67.13
2023-01-31T13:37:17.857Z,67.41
2023-01-31T13:40:22.033Z,67.09
2023-01-31T13:43:17.962Z,67.27
2023-01-31T13:46:13.828Z,67.44
2023-01-31T13:49:10.861Z,67.68
2023-01-31T13:52:09.407Z,68.02
2023-01-31T13:55:05.073Z,68.16
2023-01-31T13:58:00.330Z,68.45
2023-01-31T14:01:00.172Z,68.50
2023-01-31T14:04:27.348Z,68.29
2023-01-31T14:07:22.139Z,68.31
2023-01-31T14:10:37.495Z,68.36
2023-01-31T14:13:42.398Z,68.66
2023-01-31T14:16:39.849Z,68.89
2023-01-31T14:20:09.192Z,69.14
2023-01-31T14:23:32.440Z,69.38
2023-01-31T14:26:53.327Z,69.27
2023-01-31T14:29:33.462Z,69.29
2023-01-31T14:32:34.732Z,69.05
2023-01-31T14:35:41.606Z,68.59
2023-01-31T14:38:47.873Z,68.79
2023-01-31T14:42:10.816Z,68.83
2023-01-31T14:45:37.739Z,69.02
2023-01-31T14:48:56.663Z,69.27
2023-01-31T14:52:05.911Z,69.63
2023-01-31T14:55:23.971Z,69.89
2023-01-31T14:58:19.945Z,70.19
2023-01-31T15:01:13.120Z,70.33
2023-01-31T15:04:07.269Z,70.78
2023-01-31T15:06:58.452Z,70.95
2023-01-31T15:09:50.777Z,71.36
2023-01-31T15:12:59.862Z,71.43
2023-01-31T15:15:55.115Z,71.91
2023-01-31T15:18:50.006Z,71.83
2023-01-31T15:21:48.064Z,72.00
2023-01-31T15:24:44.499Z,71.89
2023-01-31T15:27:43.089Z,72.35
2023-01-31T15:30:36.907Z,72.81
2023-01-31T15:33:32.567Z,72.99
2023-01-31T15:36:30.141Z,73.04
2023-01-31T15:39:29.840Z,73.10
2023-01-31T15:42:27.393Z,73.40
2023-01-31T15:45:25.100Z,73.78
2023-01-31T15:48:19.642Z,73.84
2023-01-31T15:51:14.790Z,73.82
2023-01-31T15:54:08.361Z,74.07
2023-01-31T15:57:01.573Z,74.26
2023-01-31T15:59:54.224Z,74.66
2023-01-31T16:02:49.532Z,74.70
2023-01-31T16:05:42.902Z,74.68
2023-01-31T16:08:39.930Z,74.48
2023-01-31T16:11:35.013Z,74.63
2023-01-31T16:14:29.739Z,74.59
2023-01-31T16:17:24.822Z,74.56
2023-01-31T16:20:37.601Z,74.43
2023-01-31T16:23:32.804Z,74.84
2023-01-31T16:26:28.844Z,74.64
2023-01-31T16:29:24.427Z,74.59
2023-01-31T16:32:23.997Z,74.57
2023-01-31T16:35:25.703Z,74.86
2023-01-31T16:38:26.796Z,74.86
2023-01-31T16:41:39.707Z,74.80
2023-01-31T16:44:36.415Z,75.05
2023-01-31T16:47:55.191Z,74.93
2023-01-31T16:50:47.436Z,74.92
2023-01-31T16:53:41.613Z,74.60
2023-01-31T16:56:34.412Z,74.87
2023-01-31T16:59:45.864Z,74.74
2023-01-31T17:02:43.685Z,74.79
2023-01-31T17:05:42.443Z,74.80
2023-01-31T17:08:42.242Z,74.86
2023-01-31T17:11:42.641Z,75.25
2023-01-31T17:14:35.586Z,75.40
2023-01-31T17:17:30.010Z,75.53
2023-01-31T17:20:23.027Z,75.41
2023-01-31T17:23:16.033Z,75.73
2023-01-31T17:26:10.842Z,75.86
2023-01-31T17:29:03.017Z,75.85
2023-01-31T17:31:55.261Z,75.82
2023-01-31T17:34:48.722Z,75.90
2023-01-31T17:37:40.971Z,75.94
2023-01-31T17:40:33.553Z,76.06
2023-01-31T17:43:26.169Z,76.10
2023-01-31T17:46:20.226Z,76.05
2023-01-31T17:49:11.091Z,76.11
2023-01-31T17:52:03.823Z,76.46
2023-01-31T17:54:56.366Z,76.21
2023-01-31T17:57:49.911Z,76.37
2023-01-31T18:00:42.022Z,76.54
2023-01-31T18:03:25.914Z,76.44
2023-01-31T18:06:18.591Z,76.56
2023-01-31T18:09:10.763Z,76.53
2023-01-31T18:12:02.884Z,76.77
2023-01-31T18:14:55.437Z,76.71
2023-01-31T18:17:47.613Z,76.75
2023-01-31T18:20:40.578Z,76.94
2023-01-31T18:23:33.006Z,77.04
2023-01-31T18:26:27.694Z,77.17
2023-01-31T18:29:21.126Z,76.79
2023-01-31T18:32:13.325Z,76.99
2023-01-31T18:35:05.907Z,77.09
2023-01-31T18:37:58.056Z,77.28
2023-01-31T18:40:50.234Z,77.26
2023-01-31T18:43:42.907Z,77.18
2023-01-31T18:46:25.313Z,77.31
2023-01-31T18:49:00.431Z,77.24
2023-01-31T18:51:52.788Z,77.34
2023-01-31T18:54:51.003Z,77.35
2023-01-31T18:57:43.281Z,77.39
2023-01-31T19:00:35.471Z,77.63
2023-01-31T19:03:27.717Z,77.63
2023-01-31T19:06:22.251Z,77.61
2023-01-31T19:09:15.292Z,77.60
2023-01-31T19:12:07.799Z,77.67
2023-01-31T19:15:00.015Z,77.74
2023-01-31T19:17:52.676Z,77.84
2023-01-31T19:20:44.988Z,77.91
2023-01-31T19:23:37.995Z,77.83
2023-01-31T19:26:31.261Z,78.21
2023-01-31T19:29:23.443Z,78.11
2023-01-31T19:32:15.548Z,77.84
2023-01-31T19:35:09.203Z,77.97
2023-01-31T19:38:01.467Z,77.96
2023-01-31T19:40:53.458Z,78.05
2023-01-31T19:43:45.884Z,78.18
2023-01-31T19:46:38.723Z,78.18
2023-01-31T19:49:30.975Z,78.44
2023-01-31T19:52:23.125Z,78.49
2023-01-31T19:55:15.374Z,78.51
2023-01-31T19:58:07.466Z,78.57
2023-01-31T20:00:59.986Z,78.63
2023-01-31T20:03:52.175Z,78.62
2023-01-31T20:06:44.326Z,78.63
2023-01-31T20:09:36.633Z,78.53
2023-01-31T20:12:28.711Z,78.85
2023-01-31T20:15:20.899Z,78.68
2023-01-31T20:18:13.258Z,78.94
2023-01-31T20:21:06.664Z,78.86
2023-01-31T20:23:59.081Z,79.01
2023-01-31T20:26:51.766Z,78.92
2023-01-31T20:29:44.116Z,78.94
2023-01-31T20:32:36.634Z,79.03
2023-01-31T20:35:28.779Z,79.04
2023-01-31T20:38:21.022Z,79.33
2023-01-31T20:41:15.182Z,79.24
2023-01-31T20:44:05.978Z,79.27
2023-01-31T20:46:58.250Z,79.40
2023-01-31T20:49:50.359Z,79.57
2023-01-31T20:52:42.498Z,79.45
2023-01-31T20:55:34.758Z,79.21
2023-01-31T20:58:27.955Z,79.23
2023-01-31T21:01:20.254Z,79.49
2023-01-31T21:04:12.283Z,79.59
2023-01-31T21:07:04.780Z,79.60
2023-01-31T21:09:56.907Z,79.80
2023-01-31T21:12:49.055Z,79.96
2023-01-31T21:15:41.170Z,79.95
2023-01-31T21:18:34.901Z,80.11
2023-01-31T21:21:27.029Z,80.06
2023-01-31T21:24:19.139Z,79.84
2023-01-31T21:27:11.307Z,80.00
2023-01-31T21:30:03.461Z,79.66
2023-01-31T21:32:55.676Z,79.80
2023-01-31T21:35:47.756Z,80.03
2023-01-31T21:38:40.424Z,79.97
2023-01-31T21:41:50.331Z,80.10
2023-01-31T21:44:42.377Z,80.32
2023-01-31T21:47:34.560Z,80.21
2023-01-31T21:50:27.865Z,80.12
2023-01-31T21:53:20.140Z,80.00
2023-01-31T21:56:13.663Z,79.86
2023-01-31T21:59:05.868Z,80.01
2023-01-31T22:01:57.941Z,80.00
2023-01-31T22:04:50.158Z,79.93
2023-01-31T22:07:42.315Z,80.08
2023-01-31T22:10:34.509Z,80.11
2023-01-31T22:13:26.595Z,80.13
2023-01-31T22:16:20.736Z,80.20
2023-01-31T22:19:12.740Z,80.12
2023-01-31T22:22:04.920Z,80.06
2023-01-31T22:24:57.237Z,79.94
2023-01-31T22:27:52.263Z,79.97
2023-01-31T22:30:44.333Z,80.09
2023-01-31T22:33:37.823Z,79.92
2023-01-31T22:36:30.308Z,79.86
2023-01-31T22:39:22.554Z,79.96
2023-01-31T22:42:14.667Z,79.94
2023-01-31T22:45:08.229Z,80.19
2023-01-31T22:48:00.457Z,79.89
2023-01-31T22:50:58.459Z,79.86
2023-01-31T22:53:50.685Z,79.86
2023-01-31T22:56:42.944Z,79.97
2023-01-31T22:59:35.011Z,79.79
2023-01-31T23:02:27.200Z,79.69
2023-01-31T23:05:19.508Z,79.80
2023-01-31T23:08:12.061Z,79.88
2023-01-31T23:11:08.815Z,79.83
2023-01-31T23:14:01.385Z,79.98
2023-01-31T23:17:11.393Z,79.97
2023-01-31T23:20:06.380Z,79.97
2023-01-31T23:22:59.919Z,79.95
2023-01-31T23:25:52.076Z,79.91
2023-01-31T23:28:44.356Z,79.67
2023-01-31T23:31:36.659Z,79.91
2023-01-31T23:34:28.859Z,79.81
2023-01-31T23:37:22.391Z,79.85
2023-01-31T23:40:15.359Z,80.15
2023-01-31T23:43:07.658Z,80.12
2023-01-31T23:45:59.749Z,80.19
2023-01-31T23:48:51.823Z,80.09
2023-01-31T23:51:43.903Z,80.01
2023-01-31T23:54:36.536Z,79.98
2023-01-31T23:57:28.640Z,80.29
